createdAt,value
2023-03-07T00:39:45.939Z,1677.00
2023-03-07T01:52:51.384Z,1601.00
2023-03-07T01:53:51.482Z,1599.00
2023-03-07T01:54:51.566Z,1600.00
2023-03-07T01:55:51.643Z,1602.00
2023-03-07T01:56:52.065Z,1595.00
2023-03-07T01:57:51.796Z,1594.00
2023-03-07T01:58:51.870Z,1596.00
2023-03-07T01:59:51.961Z,1596.00
2023-03-07T02:00:52.093Z,1597.00
2023-03-07T02:01:52.136Z,1594.00
2023-03-07T02:02:52.215Z,1593.00
2023-03-07T02:03:52.315Z,1594.00
2023-03-07T02:04:52.452Z,1595.00
2023-03-07T02:05:52.477Z,1600.00
2023-03-07T02:06:52.564Z,1601.00
2023-03-07T02:07:52.648Z,1601.00
2023-03-07T02:08:52.738Z,1599.00
2023-03-07T02:09:52.830Z,1599.00
2023-03-07T02:10:52.926Z,1594.00
2023-03-07T02:11:52.984Z,1594.00
2023-03-07T02:12:53.164Z,1595.00
2023-03-07T02:13:53.152Z,1594.00
2023-03-07T02:14:53.244Z,1595.00
2023-03-07T02:15:53.366Z,1593.00
2023-03-07T02:16:53.416Z,1591.00
2023-03-07T02:17:53.503Z,1590.00
2023-03-07T02:18:53.587Z,1591.00
2023-03-07T02:19:53.688Z,1591.00
2023-03-07T02:20:53.770Z,1590.00
2023-03-07T02:22:53.952Z,1591.00
2023-03-07T02:23:54.033Z,1594.00
2023-03-07T02:24:54.126Z,1594.00
2023-03-07T03:53:01.316Z,1479.00
2023-03-07T03:54:01.393Z,1476.00
2023-03-07T03:55:01.460Z,1472.00
2023-03-07T06:05:11.348Z,1366.00
2023-03-07T06:06:11.426Z,1365.00
2023-03-07T06:08:11.593Z,1360.00
2023-03-07T06:32:13.249Z,1540.00
2023-03-07T06:33:13.218Z,1575.00
2023-03-07T06:34:14.083Z,1718.00
2023-03-07T06:35:13.652Z,1698.00
2023-03-07T06:37:13.308Z,1718.00
2023-03-07T06:38:13.327Z,1743.00
2023-03-07T06:39:13.433Z,1827.00
2023-03-07T06:40:13.388Z,1830.00
2023-03-07T06:41:13.387Z,1829.00
2023-03-07T06:42:13.488Z,1841.00
2023-03-07T10:27:21.315Z,925.00
2023-03-07T10:28:21.751Z,914.00
2023-03-07T10:29:21.448Z,917.00
2023-03-07T10:30:21.505Z,916.00
2023-03-07T10:31:21.610Z,854.00
2023-03-07T10:32:21.652Z,839.00
2023-03-07T10:33:21.715Z,831.00
2023-03-07T10:34:27.050Z,828.00
2023-03-07T10:35:22.805Z,834.00
2023-03-07T10:36:21.830Z,1014.00
2023-03-07T10:37:21.925Z,810.00
2023-03-07T10:38:21.914Z,804.00
2023-03-07T10:39:21.929Z,943.00
2023-03-07T10:40:21.939Z,942.00
2023-03-07T10:41:21.962Z,1231.00
2023-03-07T10:42:21.989Z,1107.00
2023-03-07T10:43:21.998Z,1106.00
2023-03-07T10:44:22.018Z,1149.00
2023-03-07T10:45:22.033Z,1232.00
2023-03-07T10:46:26.832Z,1274.00
2023-03-07T10:47:23.058Z,1310.00
2023-03-07T10:48:22.051Z,1340.00
2023-03-07T10:49:22.068Z,1382.00
2023-03-07T10:50:22.130Z,1401.00
2023-03-07T10:51:22.065Z,1418.00
2023-03-07T10:52:22.073Z,1502.00
2023-03-07T10:53:22.075Z,1580.00
2023-03-07T10:54:22.086Z,1611.00
2023-03-07T10:55:23.722Z,1612.00
2023-03-07T10:56:22.078Z,1611.00
2023-03-07T10:57:22.110Z,1679.00
2023-03-07T10:58:22.073Z,1791.00
2023-03-07T10:59:22.065Z,1794.00
2023-03-07T11:00:22.064Z,1786.00
2023-03-07T11:01:22.073Z,1769.00
2023-03-07T11:02:22.048Z,1793.00
2023-03-07T11:03:22.107Z,2119.00
2023-03-07T11:04:22.126Z,2110.00
2023-03-07T11:05:22.039Z,1936.00
2023-03-07T11:06:22.036Z,1939.00
2023-03-07T11:07:22.033Z,1966.00
2023-03-07T11:10:22.043Z,2077.00
2023-03-07T14:34:31.326Z,1741.00
2023-03-07T14:36:31.834Z,1736.00
2023-03-07T14:39:31.362Z,1731.00
2023-03-07T14:40:31.329Z,1730.00
2023-03-07T14:41:31.367Z,1728.00
2023-03-07T14:42:31.380Z,1727.00
2023-03-07T14:43:31.407Z,1725.00
2023-03-07T14:44:31.438Z,1721.00
2023-03-07T14:45:31.449Z,1720.00
2023-03-07T14:46:31.525Z,1718.00
2023-03-07T14:47:31.483Z,1715.00
2023-03-07T14:48:31.511Z,1718.00
2023-03-07T14:49:31.539Z,1720.00
2023-03-07T14:50:31.554Z,1712.00
2023-03-07T14:51:31.602Z,1711.00
2023-03-07T14:52:31.955Z,1712.00
2023-03-07T14:53:31.621Z,1714.00
2023-03-07T14:54:31.681Z,1715.00
2023-03-07T14:55:31.675Z,1715.00
2023-03-07T14:56:31.698Z,1716.00
2023-03-07T14:57:31.732Z,1713.00
2023-03-07T14:58:31.773Z,1712.00
2023-03-07T14:59:31.784Z,1709.00
2023-03-07T15:00:31.804Z,1710.00
2023-03-07T15:01:32.022Z,1709.00
2023-03-07T15:02:31.843Z,1713.00
2023-03-07T15:03:31.888Z,1716.00
2023-03-07T15:04:32.047Z,1715.00
2023-03-07T15:05:32.011Z,1714.00
2023-03-07T15:06:31.954Z,1713.00
2023-03-07T15:07:31.975Z,1712.00
2023-03-07T15:08:31.989Z,1712.00
2023-03-07T15:09:32.091Z,1714.00
2023-03-07T15:10:32.090Z,1711.00
2023-03-07T15:11:32.051Z,1710.00
2023-03-07T15:12:32.100Z,1707.00
2023-03-07T15:13:32.103Z,1709.00
2023-03-07T15:14:32.134Z,1708.00
2023-03-07T15:15:32.150Z,1706.00
2023-03-07T15:16:32.310Z,1708.00
2023-03-07T15:17:32.204Z,1707.00
2023-03-07T15:18:32.244Z,1704.00
2023-03-07T15:19:32.237Z,1703.00
2023-03-07T15:20:32.262Z,1703.00
2023-03-07T15:21:32.288Z,1703.00
2023-03-07T15:22:32.375Z,1700.00
2023-03-07T15:23:32.349Z,1700.00
2023-03-07T15:24:32.437Z,1697.00
2023-03-07T15:25:32.407Z,1700.00
2023-03-07T15:26:32.418Z,1701.00
2023-03-07T15:27:32.456Z,1701.00
2023-03-07T15:28:32.486Z,1696.00
2023-03-07T15:29:32.517Z,1692.00
2023-03-07T15:30:32.537Z,1691.00
2023-03-07T15:31:32.590Z,1691.00
2023-03-07T15:32:32.685Z,1688.00
2023-03-07T15:33:32.628Z,1688.00
2023-03-07T15:34:32.666Z,1686.00
2023-03-07T15:35:32.814Z,1682.00
2023-03-07T15:36:32.744Z,1682.00
2023-03-07T15:37:32.753Z,1682.00
2023-03-07T15:38:32.788Z,1683.00
2023-03-07T15:39:32.814Z,1680.00
2023-03-07T15:40:32.846Z,1676.00
2023-03-07T15:41:32.888Z,1676.00
2023-03-07T15:42:32.919Z,1670.00
2023-03-07T15:43:32.958Z,1665.00
2023-03-07T15:44:33.019Z,1661.00
2023-03-07T15:45:33.174Z,1662.00
2023-03-07T15:46:33.074Z,1656.00
2023-03-07T15:47:33.102Z,1657.00
2023-03-07T15:48:33.146Z,1659.00
2023-03-07T18:44:41.331Z,1511.00
2023-03-07T18:45:41.368Z,1514.00
2023-03-07T18:46:42.130Z,1515.00
2023-03-07T18:47:41.480Z,1519.00
2023-03-07T18:48:41.539Z,1517.00
2023-03-07T18:49:41.569Z,1516.00
2023-03-07T18:50:41.617Z,1512.00
2023-03-07T18:51:41.667Z,1509.00
2023-03-07T18:52:41.719Z,1509.00
2023-03-07T18:53:41.762Z,1510.00
2023-03-07T18:54:41.863Z,1510.00
2023-03-07T18:55:41.905Z,1509.00
2023-03-07T18:56:41.920Z,1506.00
2023-03-07T18:57:41.987Z,1505.00
2023-03-07T18:58:42.023Z,1505.00
2023-03-07T18:59:42.073Z,1510.00
2023-03-07T19:00:42.153Z,1512.00
2023-03-07T19:01:42.185Z,1511.00
2023-03-07T19:02:42.237Z,1508.00
2023-03-07T19:03:42.279Z,1506.00
2023-03-07T19:04:42.347Z,1508.00
2023-03-07T19:05:42.388Z,1507.00
2023-03-07T19:06:42.568Z,1505.00
2023-03-07T19:07:42.499Z,1504.00
2023-03-07T19:08:42.554Z,1505.00
2023-03-07T19:09:44.618Z,1502.00
2023-03-07T19:10:42.649Z,1501.00
2023-03-07T19:11:42.675Z,1500.00
2023-03-07T19:12:42.702Z,1505.00
2023-03-07T19:13:42.739Z,1504.00
2023-03-07T19:14:42.780Z,1501.00
2023-03-07T19:15:44.847Z,1503.00
2023-03-07T19:16:42.886Z,1506.00
2023-03-07T19:17:42.908Z,1499.00
2023-03-07T19:18:42.869Z,1498.00
2023-03-07T19:19:42.970Z,1499.00
2023-03-07T19:20:42.932Z,1493.00
2023-03-07T19:21:42.955Z,1493.00
2023-03-07T19:22:42.987Z,1494.00
2023-03-07T19:23:43.010Z,1494.00
2023-03-07T19:24:43.092Z,1490.00
2023-03-07T19:25:43.079Z,1494.00
2023-03-07T19:26:43.107Z,1499.00
2023-03-07T19:27:43.216Z,1498.00
2023-03-07T19:28:43.167Z,1497.00
2023-03-07T19:29:43.202Z,1497.00
2023-03-07T19:30:43.221Z,1496.00
2023-03-07T19:31:43.344Z,1495.00
2023-03-07T19:32:43.422Z,1495.00
2023-03-07T19:33:43.462Z,1494.00
2023-03-07T19:34:43.461Z,1493.00
2023-03-07T19:35:43.616Z,1490.00
2023-03-07T19:36:44.513Z,1490.00
2023-03-07T19:37:43.632Z,1486.00
2023-03-07T19:38:43.683Z,1488.00
2023-03-07T19:39:43.806Z,1487.00
2023-03-07T19:40:43.810Z,1488.00
2023-03-07T19:41:44.717Z,1490.00
2023-03-07T19:42:43.901Z,1489.00
2023-03-07T19:43:43.968Z,1485.00
2023-03-07T19:44:44.067Z,1484.00
2023-03-07T19:45:44.134Z,1484.00
2023-03-07T19:46:44.151Z,1483.00
2023-03-07T19:47:44.220Z,1486.00
2023-03-07T19:48:44.275Z,1484.00
2023-03-07T19:49:44.306Z,1482.00
2023-03-07T19:50:44.374Z,1478.00
2023-03-07T19:51:44.437Z,1481.00
2023-03-07T19:52:44.571Z,1480.00
2023-03-07T19:53:44.555Z,1482.00
2023-03-07T19:54:44.616Z,1481.00
2023-03-07T19:55:44.696Z,1480.00
2023-03-07T19:56:44.730Z,1477.00
2023-03-07T19:57:44.793Z,1478.00
2023-03-07T19:58:44.852Z,1479.00
2023-03-07T19:59:44.913Z,1481.00
2023-03-07T20:00:44.969Z,1483.00
2023-03-07T20:01:45.145Z,1486.00
2023-03-07T20:02:45.435Z,1487.00
2023-03-07T20:03:45.141Z,1483.00
2023-03-07T20:04:45.202Z,1482.00
2023-03-07T20:05:45.304Z,1478.00
2023-03-07T20:06:45.326Z,1475.00
2023-03-07T20:07:45.453Z,1474.00
2023-03-07T20:08:45.461Z,1472.00
2023-03-07T20:09:45.513Z,1468.00
2023-03-07T20:10:45.569Z,1465.00
2023-03-07T20:11:45.629Z,1466.00
2023-03-07T20:12:45.763Z,1466.00
2023-03-07T20:15:45.893Z,1468.00
2023-03-07T21:42:50.642Z,1425.00
2023-03-07T21:43:50.716Z,1426.00
2023-03-07T21:44:50.735Z,1427.00
2023-03-07T21:45:51.028Z,1423.00
2023-03-07T21:46:50.848Z,1423.00
2023-03-07T21:47:50.891Z,1420.00
2023-03-07T21:48:50.967Z,1420.00
2023-03-07T21:49:51.007Z,1417.00
2023-03-07T21:50:51.109Z,1417.00
2023-03-07T21:51:51.123Z,1419.00
2023-03-07T21:52:51.180Z,1419.00
2023-03-07T21:53:51.242Z,1418.00
2023-03-07T21:54:51.291Z,1411.00
2023-03-07T21:55:51.348Z,1411.00
2023-03-07T21:56:51.411Z,1410.00
2023-03-07T21:57:51.470Z,1410.00
2023-03-07T21:58:51.522Z,1414.00
2023-03-07T21:59:51.584Z,1414.00
2023-03-07T22:00:51.703Z,1414.00
2023-03-07T22:01:52.470Z,1413.00
2023-03-07T22:02:51.771Z,1414.00
2023-03-07T22:03:51.914Z,1413.00
2023-03-07T22:04:51.894Z,1414.00
2023-03-07T22:05:51.958Z,1410.00
2023-03-07T22:06:52.115Z,1409.00
2023-03-07T22:07:52.214Z,1406.00
2023-03-07T22:08:52.147Z,1406.00
2023-03-07T22:09:52.282Z,1406.00
2023-03-07T22:10:52.268Z,1406.00
2023-03-07T22:11:52.323Z,1404.00
2023-03-07T22:12:52.485Z,1404.00
2023-03-07T22:13:52.461Z,1404.00
2023-03-07T22:14:52.511Z,1404.00
2023-03-07T22:15:52.572Z,1403.00
2023-03-07T22:16:52.753Z,1398.00
2023-03-07T22:17:53.524Z,1398.00
2023-03-07T22:18:52.770Z,1403.00
2023-03-07T22:19:52.826Z,1401.00
2023-03-07T22:20:52.888Z,1400.00
2023-03-07T22:21:52.950Z,1397.00
2023-03-07T22:22:53.012Z,1397.00
2023-03-07T22:23:53.075Z,1397.00
2023-03-07T22:24:53.135Z,1395.00
2023-03-07T22:25:53.272Z,1392.00
2023-03-07T22:26:53.253Z,1391.00
2023-03-07T22:27:53.310Z,1389.00
2023-03-07T22:28:53.382Z,1388.00
2023-03-07T22:29:53.437Z,1388.00
2023-03-07T22:30:53.499Z,1391.00
2023-03-07T22:31:53.577Z,1391.00
2023-03-07T22:32:53.666Z,1392.00
2023-03-07T22:33:53.683Z,1387.00
2023-03-07T22:34:53.735Z,1383.00
2023-03-07T22:35:53.860Z,1385.00
2023-03-07T22:36:53.845Z,1385.00
2023-03-07T22:37:54.000Z,1386.00
2023-03-07T22:38:53.978Z,1386.00
2023-03-07T22:39:54.022Z,1385.00
2023-03-07T22:40:54.091Z,1382.00
2023-03-07T22:41:54.141Z,1378.00
2023-03-07T22:42:54.207Z,1378.00
2023-03-07T22:43:54.272Z,1376.00
2023-03-07T22:44:54.321Z,1379.00
2023-03-07T22:45:54.414Z,1380.00
2023-03-07T22:46:54.430Z,1383.00
2023-03-07T22:47:54.496Z,1382.00
2023-03-07T22:48:54.550Z,1380.00
2023-03-07T22:49:54.603Z,1379.00
2023-03-07T22:50:54.676Z,1377.00
2023-03-07T22:51:54.739Z,1375.00
2023-03-07T22:52:54.803Z,1374.00
2023-03-07T22:53:54.869Z,1375.00
2023-03-07T22:54:54.911Z,1373.00
2023-03-07T22:55:54.968Z,1367.00
2023-03-07T22:56:55.034Z,1367.00
2023-03-07T22:57:55.095Z,1371.00
2023-03-07T22:58:55.144Z,1378.00
2023-03-07T22:59:55.207Z,1379.00
2023-03-07T23:00:55.257Z,1378.00
2023-03-07T23:01:55.320Z,1377.00
2023-03-07T23:02:55.400Z,1371.00
2023-03-07T23:03:55.452Z,1370.00
2023-03-07T23:04:55.497Z,1371.00
2023-03-07T23:05:55.537Z,1369.00
2023-03-07T23:06:55.597Z,1371.00
2023-03-07T23:07:55.657Z,1366.00
2023-03-07T23:08:55.717Z,1365.00
2023-03-07T23:09:55.762Z,1363.00
2023-03-07T23:10:56.516Z,1364.00
2023-03-07T23:11:55.885Z,1363.00
2023-03-07T23:12:55.931Z,1362.00
2023-03-07T23:13:56.006Z,1361.00
2023-03-07T23:14:56.059Z,1354.00
2023-03-07T23:15:56.166Z,1351.00
2023-03-07T23:16:56.167Z,1349.00
2023-03-07T23:17:56.232Z,1353.00
2023-03-07T23:18:56.296Z,1357.00
2023-03-07T23:19:56.360Z,1356.00
2023-03-07T23:20:56.424Z,1356.00
2023-03-07T23:21:56.489Z,1355.00
2023-03-07T23:22:56.549Z,1353.00
2023-03-07T23:23:56.637Z,1350.00
2023-03-07T23:24:56.681Z,1350.00
2023-03-07T23:25:56.742Z,1353.00
2023-03-07T23:26:56.801Z,1348.00
2023-03-07T23:27:56.877Z,1348.00
2023-03-07T23:28:56.931Z,1350.00
2023-03-07T23:29:57.507Z,1346.00
2023-03-07T23:30:57.104Z,1348.00
2023-03-07T23:31:57.235Z,1347.00
2023-03-07T23:32:57.171Z,1348.00
2023-03-07T23:33:57.260Z,1348.00
2023-03-07T23:34:57.302Z,1348.00
2023-03-07T23:35:57.383Z,1348.00
2023-03-07T23:36:57.429Z,1350.00
2023-03-07T23:37:57.488Z,1347.00
2023-03-07T23:38:57.557Z,1348.00
2023-03-07T23:39:57.619Z,1346.00
2023-03-07T23:40:57.674Z,1347.00
2023-03-07T23:41:57.732Z,1346.00
2023-03-07T23:42:57.789Z,1343.00
2023-03-07T23:43:57.856Z,1345.00
2023-03-07T23:44:57.920Z,1345.00
2023-03-07T23:45:58.043Z,1342.00
2023-03-07T23:46:58.036Z,1337.00
2023-03-07T23:47:58.098Z,1338.00
2023-03-07T23:48:58.156Z,1337.00
2023-03-07T23:49:58.271Z,1337.00
2023-03-07T23:50:58.272Z,1337.00
2023-03-07T23:51:58.343Z,1334.00
2023-03-07T23:52:58.390Z,1333.00
2023-03-07T23:53:58.449Z,1332.00
2023-03-07T23:54:58.510Z,1335.00
2023-03-07T23:55:58.581Z,1332.00
2023-03-07T23:56:58.632Z,1332.00
2023-03-07T23:57:58.696Z,1331.00
2023-03-07T23:58:58.757Z,1333.00
2023-03-07T23:59:58.811Z,1335.00
